createdAt,value
2019-02-11T00:00:42.830Z,79.02
2019-02-11T00:03:12.369Z,78.80
2019-02-11T00:05:41.816Z,78.66
2019-02-11T00:08:11.440Z,78.79
2019-02-11T00:10:40.884Z,79.60
2019-02-11T00:13:11.426Z,78.23
2019-02-11T00:15:40.895Z,78.08
2019-02-11T00:18:11.430Z,77.47
2019-02-11T00:20:40.876Z,78.64
2019-02-11T00:23:11.450Z,79.52
2019-02-11T00:25:40.895Z,78.50
2019-02-11T00:28:11.432Z,79.20
2019-02-11T00:30:40.899Z,78.74
2019-02-11T00:33:11.452Z,78.26
2019-02-11T00:35:40.907Z,78.13
2019-02-11T00:38:11.463Z,77.67
2019-02-11T00:40:41.784Z,77.89
2019-02-11T00:43:18.939Z,78.11
2019-02-11T00:45:42.614Z,77.23
2019-02-11T00:48:12.085Z,77.38
2019-02-11T00:50:41.526Z,77.92
2019-02-11T00:53:11.460Z,79.45
2019-02-11T00:55:40.920Z,79.41
2019-02-11T00:58:11.434Z,78.94
2019-02-11T01:00:40.892Z,80.07
2019-02-11T01:03:11.446Z,80.22
2019-02-11T01:05:40.884Z,80.54
2019-02-11T01:08:11.485Z,80.70
2019-02-11T01:10:40.923Z,80.52
2019-02-11T01:13:11.466Z,80.16
2019-02-11T01:15:40.924Z,80.29
2019-02-11T01:18:11.468Z,80.48
2019-02-11T01:20:40.925Z,81.84
2019-02-11T01:23:11.469Z,80.98
2019-02-11T01:25:40.911Z,81.00
2019-02-11T01:28:11.496Z,80.46
2019-02-11T01:30:40.933Z,79.33
2019-02-11T01:33:11.494Z,81.00
2019-02-11T01:35:40.935Z,82.04
2019-02-11T01:38:11.491Z,82.21
2019-02-11T01:40:40.930Z,81.85
2019-02-11T01:43:11.473Z,82.45
2019-02-11T01:45:40.935Z,81.08
2019-02-11T01:48:11.486Z,80.81
2019-02-11T01:50:40.939Z,82.15
2019-02-11T01:53:11.489Z,81.58
2019-02-11T01:55:40.932Z,81.75
2019-02-11T01:58:11.509Z,80.14
2019-02-11T02:00:41.014Z,80.90
2019-02-11T02:03:11.506Z,80.07
2019-02-11T02:05:40.947Z,82.76
2019-02-11T02:08:11.551Z,83.22
2019-02-11T02:10:41.027Z,82.27
2019-02-11T02:13:11.493Z,82.78
2019-02-11T02:15:40.951Z,81.63
2019-02-11T02:18:11.492Z,82.00
2019-02-11T02:20:40.940Z,81.25
2019-02-11T02:23:11.520Z,81.84
2019-02-11T02:25:40.964Z,81.05
2019-02-11T02:28:11.506Z,81.90
2019-02-11T02:30:40.969Z,81.61
2019-02-11T02:33:11.513Z,80.68
2019-02-11T02:35:40.952Z,81.22
2019-02-11T02:38:11.541Z,81.14
2019-02-11T02:40:40.983Z,81.52
2019-02-11T02:43:11.521Z,80.64
2019-02-11T02:45:40.985Z,81.00
2019-02-11T02:48:11.528Z,81.49
2019-02-11T02:50:40.975Z,81.02
2019-02-11T02:53:11.551Z,79.89
2019-02-11T02:55:41.011Z,79.99
2019-02-11T02:58:11.556Z,79.29
2019-02-11T03:00:40.995Z,79.43
2019-02-11T03:03:11.529Z,79.03
2019-02-11T03:05:40.989Z,79.17
2019-02-11T03:08:11.661Z,79.03
2019-02-11T03:10:41.105Z,78.50
2019-02-11T03:13:11.796Z,78.50
2019-02-11T03:15:41.241Z,78.43
2019-02-11T03:18:11.745Z,78.18
2019-02-11T03:20:41.195Z,78.06
2019-02-11T03:23:11.728Z,78.67
2019-02-11T03:25:41.183Z,78.58
2019-02-11T03:28:11.752Z,78.25
2019-02-11T03:30:41.195Z,78.51
2019-02-11T03:33:11.743Z,78.95
2019-02-11T03:35:41.182Z,79.23
2019-02-11T03:38:11.766Z,79.65
2019-02-11T03:40:41.219Z,79.54
2019-02-11T03:43:11.806Z,80.51
2019-02-11T03:45:41.259Z,80.27
2019-02-11T03:48:11.752Z,79.80
2019-02-11T03:50:41.438Z,79.86
2019-02-11T03:53:11.738Z,79.36
2019-02-11T03:55:41.195Z,80.82
2019-02-11T03:58:11.746Z,79.88
2019-02-11T04:00:41.212Z,79.35
2019-02-11T04:03:11.769Z,79.52
2019-02-11T04:05:41.208Z,79.23
2019-02-11T04:08:11.780Z,79.28
2019-02-11T04:10:41.218Z,78.98
2019-02-11T04:13:11.790Z,78.43
2019-02-11T04:15:41.320Z,78.06
2019-02-11T04:18:11.782Z,77.81
2019-02-11T04:20:41.245Z,77.96
2019-02-11T04:23:11.779Z,77.98
2019-02-11T04:25:41.240Z,78.08
2019-02-11T04:28:11.814Z,78.10
2019-02-11T04:30:41.318Z,77.97
2019-02-11T04:33:11.786Z,77.65
2019-02-11T04:35:41.247Z,77.91
2019-02-11T04:38:11.776Z,77.71
2019-02-11T04:40:41.222Z,78.22
2019-02-11T04:43:11.918Z,78.32
2019-02-11T04:45:41.374Z,78.35
2019-02-11T04:48:12.049Z,78.60
2019-02-11T04:50:41.511Z,78.76
2019-02-11T04:53:11.969Z,78.93
2019-02-11T04:55:41.428Z,79.23
2019-02-11T04:58:11.981Z,78.78
2019-02-11T05:00:41.573Z,78.94
2019-02-11T05:03:11.999Z,79.33
2019-02-11T05:05:41.440Z,78.99
2019-02-11T05:08:11.967Z,78.89
2019-02-11T05:10:41.434Z,78.76
2019-02-11T05:13:12.011Z,78.58
2019-02-11T05:15:41.451Z,78.50
2019-02-11T05:18:11.984Z,78.92
2019-02-11T05:20:41.444Z,79.53
2019-02-11T05:23:12.113Z,80.11
2019-02-11T05:25:41.550Z,79.99
2019-02-11T05:28:12.244Z,80.73
2019-02-11T05:30:41.699Z,80.57
2019-02-11T05:33:12.244Z,79.90
2019-02-11T05:35:41.675Z,80.37
2019-02-11T05:38:12.157Z,80.39
2019-02-11T05:40:41.618Z,81.15
2019-02-11T05:43:12.183Z,80.74
2019-02-11T05:45:41.614Z,81.00
2019-02-11T05:48:12.202Z,81.28
2019-02-11T05:50:41.889Z,81.33
2019-02-11T05:53:12.179Z,80.83
2019-02-11T05:55:41.621Z,81.01
2019-02-11T05:58:12.187Z,80.92
2019-02-11T06:00:41.648Z,80.51
2019-02-11T06:03:12.204Z,80.93
2019-02-11T06:05:41.678Z,80.09
2019-02-11T06:08:12.265Z,79.32
2019-02-11T06:10:41.717Z,79.66
2019-02-11T06:13:12.216Z,79.71
2019-02-11T06:15:41.659Z,78.61
2019-02-11T06:18:12.219Z,79.28
2019-02-11T06:20:41.671Z,78.43
2019-02-11T06:23:12.210Z,77.98
2019-02-11T06:25:41.673Z,78.39
2019-02-11T06:28:12.216Z,78.12
2019-02-11T06:30:41.751Z,77.60
2019-02-11T06:33:12.295Z,77.92
2019-02-11T06:35:41.737Z,78.21
2019-02-11T06:38:13.219Z,77.51
2019-02-11T06:40:42.655Z,77.51
2019-02-11T06:43:12.196Z,78.21
2019-02-11T06:45:41.698Z,79.19
2019-02-11T06:48:12.207Z,80.35
2019-02-11T06:50:41.648Z,79.65
2019-02-11T06:53:12.246Z,78.73
2019-02-11T06:55:41.691Z,78.58
2019-02-11T06:58:12.231Z,77.58
2019-02-11T07:00:41.696Z,77.53
2019-02-11T07:03:12.238Z,76.23
2019-02-11T07:05:41.687Z,76.25
2019-02-11T07:08:12.254Z,77.09
2019-02-11T07:10:41.707Z,76.82
2019-02-11T07:13:12.279Z,75.90
2019-02-11T07:15:41.718Z,75.36
2019-02-11T07:18:12.275Z,75.77
2019-02-11T07:20:41.793Z,76.04
2019-02-11T07:23:12.255Z,75.02
2019-02-11T07:25:41.724Z,74.36
2019-02-11T07:28:12.258Z,74.19
2019-02-11T07:30:41.717Z,73.87
2019-02-11T07:33:12.226Z,74.05
2019-02-11T07:35:41.674Z,74.78
2019-02-11T07:38:12.372Z,74.42
2019-02-11T07:40:41.829Z,75.09
2019-02-11T07:43:19.633Z,74.08
2019-02-11T07:45:53.140Z,73.73
2019-02-11T07:48:22.607Z,73.88
2019-02-11T07:50:52.050Z,73.67
2019-02-11T07:53:21.580Z,73.77
2019-02-11T07:55:51.035Z,73.20
2019-02-11T07:58:20.489Z,73.69
2019-02-11T08:00:49.949Z,73.72
2019-02-11T08:03:19.413Z,73.68
2019-02-11T08:05:48.866Z,74.65
2019-02-11T08:08:18.308Z,75.42
2019-02-11T08:10:48.019Z,75.98
2019-02-11T08:13:17.559Z,75.92
2019-02-11T08:15:47.027Z,76.39
2019-02-11T08:18:16.495Z,77.05
2019-02-11T08:20:45.941Z,77.50
2019-02-11T08:23:15.385Z,78.58
2019-02-11T08:25:44.864Z,77.82
2019-02-11T08:28:19.388Z,77.77
2019-02-11T08:30:45.511Z,77.42
2019-02-11T08:33:14.974Z,77.42
2019-02-11T08:35:44.424Z,77.70
2019-02-11T08:38:13.866Z,77.87
2019-02-11T08:40:43.377Z,78.00
2019-02-11T08:43:12.868Z,77.16
2019-02-11T08:45:47.161Z,77.11
2019-02-11T08:48:13.539Z,76.88
2019-02-11T08:50:43.006Z,75.92
2019-02-11T08:53:12.515Z,75.21
2019-02-11T08:55:41.969Z,74.93
2019-02-11T08:58:12.490Z,75.56
2019-02-11T09:00:41.960Z,76.23
2019-02-11T09:03:12.718Z,75.31
2019-02-11T09:05:42.167Z,75.48
2019-02-11T09:08:12.759Z,75.50
2019-02-11T09:10:42.210Z,74.81
2019-02-11T09:13:12.521Z,75.07
2019-02-11T09:15:41.974Z,75.21
2019-02-11T09:18:12.516Z,74.38
2019-02-11T09:20:42.256Z,74.84
2019-02-11T09:23:12.506Z,75.21
2019-02-11T09:25:41.975Z,76.25
2019-02-11T09:28:12.500Z,76.56
2019-02-11T09:30:41.946Z,77.53
2019-02-11T09:33:12.510Z,77.42
2019-02-11T09:35:42.186Z,76.92
2019-02-11T09:38:12.607Z,74.85
2019-02-11T09:40:42.122Z,75.59
2019-02-11T09:43:12.504Z,74.45
2019-02-11T09:45:41.967Z,73.50
2019-02-11T09:48:12.505Z,73.14
2019-02-11T09:50:47.997Z,72.90
2019-02-11T09:53:17.449Z,72.81
2019-02-11T09:55:46.918Z,72.72
2019-02-11T09:58:16.383Z,73.13
2019-02-11T10:00:45.852Z,74.12
2019-02-11T10:03:15.296Z,73.69
2019-02-11T10:05:44.750Z,72.94
2019-02-11T10:08:14.220Z,72.57
2019-02-11T10:10:43.661Z,72.35
2019-02-11T10:13:13.135Z,73.97
2019-02-11T10:15:42.616Z,72.39
2019-02-11T10:18:12.536Z,73.66
2019-02-11T10:20:42.001Z,74.36
2019-02-11T10:23:12.517Z,72.46
2019-02-11T10:25:41.961Z,73.48
2019-02-11T10:28:13.367Z,71.66
2019-02-11T10:30:42.836Z,72.89
2019-02-11T10:33:12.526Z,73.35
2019-02-11T10:35:42.644Z,74.85
2019-02-11T10:38:12.547Z,73.99
2019-02-11T10:40:41.994Z,73.55
2019-02-11T10:43:12.621Z,72.96
2019-02-11T10:45:42.013Z,72.20
2019-02-11T10:48:12.868Z,72.74
2019-02-11T10:50:42.335Z,73.80
2019-02-11T10:53:12.571Z,74.47
2019-02-11T10:55:42.163Z,73.35
2019-02-11T10:58:12.808Z,73.07
2019-02-11T11:00:42.338Z,73.68
2019-02-11T11:03:12.812Z,74.03
2019-02-11T11:05:42.247Z,72.72
2019-02-11T11:08:12.768Z,72.82
2019-02-11T11:10:42.282Z,71.89
2019-02-11T11:13:12.752Z,72.47
2019-02-11T11:15:42.208Z,72.54
2019-02-11T11:18:12.807Z,75.22
2019-02-11T11:20:42.264Z,73.53
2019-02-11T11:23:12.812Z,74.70
2019-02-11T11:25:42.257Z,74.64
2019-02-11T11:28:12.797Z,76.28
2019-02-11T11:30:42.309Z,74.69
2019-02-11T11:33:12.791Z,75.56
2019-02-11T11:35:42.245Z,73.75
2019-02-11T11:38:12.766Z,72.94
2019-02-11T11:40:42.205Z,74.08
2019-02-11T11:43:12.779Z,73.76
2019-02-11T11:45:42.322Z,72.58
2019-02-11T11:48:13.020Z,72.95
2019-02-11T11:50:42.481Z,72.96
2019-02-11T11:53:13.041Z,71.83
2019-02-11T11:55:42.545Z,72.27
2019-02-11T11:58:12.955Z,71.58
2019-02-11T12:00:42.540Z,72.95
2019-02-11T12:03:13.037Z,74.17
2019-02-11T12:05:42.499Z,73.87
2019-02-11T12:08:13.265Z,73.64
2019-02-11T12:10:42.733Z,74.98
2019-02-11T12:13:22.605Z,74.27
2019-02-11T12:15:44.356Z,74.01
2019-02-11T12:18:13.828Z,74.54
2019-02-11T12:20:43.377Z,74.99
2019-02-11T12:23:12.989Z,75.18
2019-02-11T12:25:42.423Z,75.71
2019-02-11T12:28:13.050Z,75.03
2019-02-11T12:30:42.499Z,76.17
2019-02-11T12:33:13.242Z,76.11
2019-02-11T12:35:42.686Z,74.80
2019-02-11T12:38:12.977Z,74.36
2019-02-11T12:40:42.491Z,74.87
2019-02-11T12:43:12.968Z,75.36
2019-02-11T12:45:42.418Z,77.10
2019-02-11T12:48:13.214Z,77.86
2019-02-11T12:50:42.655Z,77.79
2019-02-11T12:53:12.966Z,77.38
2019-02-11T12:55:42.422Z,76.06
2019-02-11T12:58:13.195Z,74.44
2019-02-11T13:00:42.737Z,73.50
2019-02-11T13:03:13.480Z,73.65
2019-02-11T13:05:45.745Z,72.00
2019-02-11T13:08:14.195Z,73.87
2019-02-11T13:10:43.939Z,72.04
2019-02-11T13:13:13.386Z,71.71
2019-02-11T13:15:59.946Z,70.06
2019-02-11T13:18:14.127Z,69.29
2019-02-11T13:20:43.760Z,69.03
2019-02-11T13:23:13.219Z,69.81
2019-02-11T13:25:42.664Z,71.95
2019-02-11T13:28:13.040Z,71.08
2019-02-11T13:30:42.483Z,71.87
2019-02-11T13:33:13.120Z,70.82
2019-02-11T13:35:42.670Z,69.88
2019-02-11T13:38:13.034Z,71.56
2019-02-11T13:40:42.503Z,71.71
2019-02-11T13:43:13.111Z,74.07
2019-02-11T13:45:42.562Z,73.46
2019-02-11T13:48:13.113Z,74.76
2019-02-11T13:50:44.546Z,73.74
2019-02-11T13:53:14.000Z,73.50
2019-02-11T13:55:43.469Z,74.88
2019-02-11T13:58:13.067Z,77.58
2019-02-11T14:00:43.573Z,79.85
2019-02-11T14:03:13.156Z,81.40
2019-02-11T14:05:42.688Z,81.84
2019-02-11T14:08:13.221Z,80.67
2019-02-11T14:10:42.862Z,80.76
2019-02-11T14:13:13.508Z,79.48
2019-02-11T14:15:42.936Z,78.92
2019-02-11T14:18:15.247Z,78.23
2019-02-11T14:20:44.306Z,78.12
2019-02-11T14:23:13.743Z,76.26
2019-02-11T14:25:46.472Z,72.72
2019-02-11T14:28:14.590Z,72.37
2019-02-11T14:30:44.120Z,67.65
2019-02-11T14:33:13.654Z,70.13
2019-02-11T14:35:43.092Z,72.19
2019-02-11T14:38:13.121Z,71.61
2019-02-11T14:40:42.587Z,70.87
2019-02-11T14:43:13.338Z,67.84
2019-02-11T14:45:42.798Z,68.96
2019-02-11T14:48:27.104Z,69.94
2019-02-11T14:50:44.461Z,70.83
2019-02-11T14:53:14.152Z,70.86
2019-02-11T14:55:43.622Z,69.81
2019-02-11T14:58:13.490Z,70.55
2019-02-11T15:00:42.934Z,72.17
2019-02-11T15:03:13.483Z,71.38
2019-02-11T15:05:42.940Z,70.33
2019-02-11T15:08:13.566Z,69.65
2019-02-11T15:10:43.015Z,64.62
2019-02-11T15:13:13.483Z,66.13
2019-02-11T15:15:42.938Z,65.57
2019-02-11T15:18:13.470Z,63.29
2019-02-11T15:20:42.919Z,63.85
2019-02-11T15:23:13.496Z,61.77
2019-02-11T15:25:42.943Z,60.11
2019-02-11T15:28:13.490Z,61.07
2019-02-11T15:30:42.950Z,61.19
2019-02-11T15:33:13.508Z,59.57
2019-02-11T15:35:42.970Z,61.64
2019-02-11T15:38:13.499Z,63.66
2019-02-11T15:40:42.939Z,65.17
2019-02-11T15:43:13.636Z,65.45
2019-02-11T15:45:43.078Z,65.26
2019-02-11T15:48:14.208Z,65.61
2019-02-11T15:50:43.663Z,66.49
2019-02-11T15:53:13.682Z,68.13
2019-02-11T15:55:43.124Z,69.59
2019-02-11T15:58:13.675Z,69.87
2019-02-11T16:00:43.138Z,68.80
2019-02-11T16:03:13.674Z,68.18
2019-02-11T16:05:49.447Z,70.96
2019-02-11T16:08:14.319Z,71.64
2019-02-11T16:10:43.765Z,72.28
2019-02-11T16:13:13.705Z,71.94
2019-02-11T16:15:43.150Z,72.12
2019-02-11T16:18:13.686Z,73.12
2019-02-11T16:20:43.158Z,72.76
2019-02-11T16:23:13.706Z,71.94
2019-02-11T16:25:43.390Z,71.29
2019-02-11T16:28:13.703Z,70.74
2019-02-11T16:30:43.160Z,69.68
2019-02-11T16:33:13.698Z,70.24
2019-02-11T16:35:43.143Z,70.84
2019-02-11T16:38:13.725Z,70.83
2019-02-11T16:40:43.177Z,71.58
2019-02-11T16:43:13.709Z,70.43
2019-02-11T16:45:43.180Z,69.54
2019-02-11T16:48:13.736Z,68.93
2019-02-11T16:50:43.271Z,69.86
2019-02-11T16:53:13.816Z,69.76
2019-02-11T16:55:43.353Z,69.83
2019-02-11T16:58:13.761Z,70.68
2019-02-11T17:00:43.259Z,69.21
2019-02-11T17:03:13.793Z,70.46
2019-02-11T17:05:43.316Z,70.12
2019-02-11T17:08:13.828Z,70.49
2019-02-11T17:10:43.398Z,68.87
2019-02-11T17:13:13.821Z,69.89
2019-02-11T17:15:43.281Z,70.61
2019-02-11T17:18:13.756Z,69.81
2019-02-11T17:20:43.243Z,69.94
2019-02-11T17:23:13.740Z,69.98
2019-02-11T17:25:43.201Z,70.00
2019-02-11T17:28:13.876Z,70.58
2019-02-11T17:30:44.672Z,74.36
2019-02-11T17:33:14.128Z,74.81
2019-02-11T17:35:43.570Z,74.53
2019-02-11T17:38:13.936Z,74.55
2019-02-11T17:40:43.389Z,75.09
2019-02-11T17:43:13.942Z,74.46
2019-02-11T17:45:43.398Z,73.61
2019-02-11T17:48:14.097Z,73.40
2019-02-11T17:50:43.557Z,72.70
2019-02-11T17:53:21.715Z,72.78
2019-02-11T17:55:51.248Z,72.69
2019-02-11T17:58:20.774Z,72.09
2019-02-11T18:00:51.853Z,72.39
2019-02-11T18:03:21.322Z,72.25
2019-02-11T18:05:50.759Z,72.22
2019-02-11T18:08:20.223Z,71.71
2019-02-11T18:10:49.679Z,71.11
2019-02-11T18:13:19.157Z,71.32
2019-02-11T18:15:48.690Z,71.50
2019-02-11T18:18:18.161Z,72.92
2019-02-11T18:20:47.613Z,73.20
2019-02-11T18:23:17.060Z,73.05
2019-02-11T18:25:46.528Z,72.18
2019-02-11T18:28:15.974Z,70.87
2019-02-11T18:30:45.496Z,71.37
2019-02-11T18:33:14.961Z,71.49
2019-02-11T18:35:44.475Z,71.81
2019-02-11T18:38:14.159Z,72.14
2019-02-11T18:40:43.621Z,72.03
2019-02-11T18:43:14.176Z,72.17
2019-02-11T18:45:43.625Z,72.46
2019-02-11T18:48:14.313Z,72.41
2019-02-11T18:50:43.785Z,72.24
2019-02-11T18:53:14.323Z,72.55
2019-02-11T18:55:43.769Z,72.63
2019-02-11T18:58:14.339Z,72.49
2019-02-11T19:00:43.944Z,71.74
2019-02-11T19:03:14.352Z,71.11
2019-02-11T19:05:43.864Z,72.32
2019-02-11T19:08:14.377Z,72.06
2019-02-11T19:10:43.846Z,72.23
2019-02-11T19:13:14.321Z,71.11
2019-02-11T19:15:44.075Z,71.09
2019-02-11T19:18:14.612Z,70.79
2019-02-11T19:20:44.051Z,70.66
2019-02-11T19:23:14.322Z,70.35
2019-02-11T19:25:43.778Z,69.95
2019-02-11T19:28:14.338Z,70.33
2019-02-11T19:30:43.782Z,71.43
2019-02-11T19:33:14.356Z,71.10
2019-02-11T19:35:43.801Z,71.54
2019-02-11T19:38:14.335Z,71.92
2019-02-11T19:40:43.808Z,71.25
2019-02-11T19:43:14.486Z,72.13
2019-02-11T19:45:43.957Z,71.23
2019-02-11T19:48:14.338Z,72.50
2019-02-11T19:50:43.795Z,71.87
2019-02-11T19:53:14.362Z,71.47
2019-02-11T19:55:43.810Z,71.49
2019-02-11T19:58:14.369Z,72.49
2019-02-11T20:00:43.819Z,72.78
2019-02-11T20:03:14.352Z,72.23
2019-02-11T20:05:44.060Z,73.08
2019-02-11T20:08:14.425Z,73.05
2019-02-11T20:10:43.897Z,73.27
2019-02-11T20:13:14.387Z,73.61
2019-02-11T20:15:43.933Z,73.60
2019-02-11T20:18:14.358Z,74.14
2019-02-11T20:20:43.811Z,73.99
2019-02-11T20:23:14.375Z,74.24
2019-02-11T20:25:43.827Z,73.91
2019-02-11T20:28:14.436Z,73.62
2019-02-11T20:30:43.906Z,74.31
2019-02-11T20:33:14.372Z,72.71
2019-02-11T20:35:43.819Z,72.37
2019-02-11T20:38:14.391Z,71.92
2019-02-11T20:40:43.837Z,72.30
2019-02-11T20:43:14.393Z,71.78
2019-02-11T20:45:43.863Z,71.83
2019-02-11T20:48:14.399Z,71.35
2019-02-11T20:50:43.852Z,70.74
2019-02-11T20:53:14.381Z,70.40
2019-02-11T20:55:43.859Z,70.24
2019-02-11T20:58:14.389Z,70.87
2019-02-11T21:00:44.095Z,72.06
2019-02-11T21:03:14.396Z,71.35
2019-02-11T21:05:43.842Z,71.80
2019-02-11T21:08:14.404Z,71.35
2019-02-11T21:10:43.861Z,71.74
2019-02-11T21:13:14.397Z,71.67
2019-02-11T21:15:43.856Z,72.16
2019-02-11T21:18:14.403Z,71.43
2019-02-11T21:20:45.972Z,70.86
2019-02-11T21:23:15.512Z,71.45
2019-02-11T21:25:44.955Z,70.80
2019-02-11T21:28:14.419Z,70.61
2019-02-11T21:30:43.881Z,71.96
2019-02-11T21:33:14.415Z,71.85
2019-02-11T21:35:43.856Z,71.85
2019-02-11T21:38:14.439Z,71.79
2019-02-11T21:40:43.877Z,72.02
2019-02-11T21:43:14.427Z,71.03
2019-02-11T21:45:43.873Z,70.95
2019-02-11T21:48:14.402Z,71.25
2019-02-11T21:50:43.939Z,71.66
2019-02-11T21:53:14.440Z,71.12
2019-02-11T21:55:43.880Z,71.52
2019-02-11T21:58:15.510Z,70.78
2019-02-11T22:00:45.010Z,70.82
2019-02-11T22:03:15.163Z,71.16
2019-02-11T22:05:44.612Z,70.98
2019-02-11T22:08:14.444Z,70.53
2019-02-11T22:10:43.926Z,69.97
2019-02-11T22:13:14.457Z,70.34
2019-02-11T22:15:43.904Z,70.75
2019-02-11T22:18:14.462Z,69.75
2019-02-11T22:20:43.903Z,69.31
2019-02-11T22:23:14.444Z,69.29
2019-02-11T22:25:43.907Z,68.76
2019-02-11T22:28:14.456Z,69.36
2019-02-11T22:30:43.892Z,68.28
2019-02-11T22:33:14.472Z,69.03
2019-02-11T22:35:43.917Z,68.13
2019-02-11T22:38:14.453Z,67.21
2019-02-11T22:40:43.920Z,67.53
2019-02-11T22:43:14.460Z,67.52
2019-02-11T22:45:43.928Z,67.31
2019-02-11T22:48:14.454Z,67.71
2019-02-11T22:50:43.966Z,66.94
2019-02-11T22:53:14.473Z,66.16
2019-02-11T22:55:43.932Z,65.60
2019-02-11T22:58:14.482Z,66.09
2019-02-11T23:00:50.960Z,66.41
2019-02-11T23:03:20.405Z,66.16
2019-02-11T23:05:49.870Z,65.67
2019-02-11T23:08:19.702Z,64.97
2019-02-11T23:10:49.165Z,65.42
2019-02-11T23:13:18.608Z,65.58
2019-02-11T23:15:48.191Z,65.16
2019-02-11T23:18:17.657Z,64.86
2019-02-11T23:20:52.046Z,65.24
2019-02-11T23:23:18.291Z,65.43
2019-02-11T23:25:47.736Z,66.74
2019-02-11T23:28:17.271Z,66.13
2019-02-11T23:30:46.737Z,66.01
2019-02-11T23:33:16.258Z,66.50
2019-02-11T23:35:45.767Z,66.32
2019-02-11T23:38:15.213Z,65.88
2019-02-11T23:40:44.687Z,66.16
2019-02-11T23:43:14.542Z,65.62
2019-02-11T23:45:44.468Z,65.96
2019-02-11T23:48:14.529Z,65.84
2019-02-11T23:50:43.989Z,64.36
2019-02-11T23:53:14.554Z,64.49
2019-02-11T23:55:43.995Z,64.02
2019-02-11T23:58:14.503Z,64.47
